createdAt,value
2022-11-03T00:02:08.094Z,3.97
2022-11-03T00:07:13.622Z,6.50
2022-11-03T00:12:19.136Z,4.17
2022-11-03T00:17:24.613Z,5.53
2022-11-03T00:22:31.815Z,2.70
2022-11-03T00:27:37.205Z,6.83
2022-11-03T00:32:42.595Z,4.37
2022-11-03T00:37:49.284Z,3.23
2022-11-03T00:42:54.668Z,3.40
2022-11-03T00:48:18.168Z,6.03
2022-11-03T00:53:23.755Z,2.30
2022-11-03T00:58:29.803Z,3.63
2022-11-03T01:03:37.493Z,4.67
2022-11-03T01:08:43.057Z,3.57
2022-11-03T01:13:48.584Z,5.73
2022-11-03T01:18:55.623Z,5.23
2022-11-03T01:24:05.698Z,3.67
2022-11-03T01:29:11.227Z,3.03
2022-11-03T01:34:18.838Z,4.20
2022-11-03T01:39:24.362Z,3.37
2022-11-03T01:44:32.791Z,3.53
2022-11-03T01:49:41.348Z,5.70
2022-11-03T01:54:49.713Z,3.53
2022-11-03T01:59:58.421Z,2.53
2022-11-03T02:05:06.094Z,2.40
2022-11-03T02:10:12.099Z,2.17
2022-11-03T02:15:20.022Z,4.57
2022-11-03T02:20:31.362Z,2.80
2022-11-03T02:25:48.494Z,3.43
2022-11-03T02:30:57.256Z,4.87
2022-11-03T02:36:12.015Z,4.00
2022-11-03T02:41:19.443Z,3.60
2022-11-03T02:46:27.387Z,5.20
2022-11-03T02:51:32.773Z,5.30
2022-11-03T02:56:41.291Z,3.17
2022-11-03T03:01:50.957Z,3.17
2022-11-03T03:07:04.537Z,2.93
2022-11-03T03:12:13.122Z,2.97
2022-11-03T03:17:21.615Z,5.60
2022-11-03T03:22:35.795Z,3.97
2022-11-03T03:27:45.832Z,3.40
2022-11-03T03:32:53.555Z,2.53
2022-11-03T03:38:01.985Z,2.13
2022-11-03T03:43:10.847Z,3.43
2022-11-03T03:48:16.561Z,2.37
2022-11-03T03:53:21.997Z,3.80
2022-11-03T03:58:27.535Z,3.50
2022-11-03T04:03:33.019Z,4.10
2022-11-03T04:08:38.609Z,3.03
2022-11-03T04:14:02.154Z,2.90
2022-11-03T04:19:29.455Z,6.13
2022-11-03T04:24:35.087Z,2.10
2022-11-03T04:29:40.708Z,5.00
2022-11-03T04:34:49.736Z,2.17
2022-11-03T04:40:01.443Z,4.30
2022-11-03T04:45:10.230Z,2.93
2022-11-03T04:50:24.311Z,2.93
2022-11-03T04:55:29.838Z,3.07
2022-11-03T05:00:35.313Z,3.07
2022-11-03T05:05:40.777Z,6.03
2022-11-03T05:10:47.217Z,3.80
2022-11-03T05:15:55.598Z,4.00
2022-11-03T05:21:04.362Z,3.90
2022-11-03T05:26:29.251Z,3.57
2022-11-03T05:31:37.845Z,5.63
2022-11-03T05:36:44.958Z,3.90
2022-11-03T05:41:50.860Z,5.33
2022-11-03T05:47:03.143Z,3.23
2022-11-03T05:52:10.796Z,3.13
2022-11-03T05:57:17.923Z,6.90
2022-11-03T06:02:41.382Z,4.13
2022-11-03T06:07:47.963Z,5.50
2022-11-03T06:12:59.028Z,2.83
2022-11-03T06:18:19.092Z,3.77
2022-11-03T06:23:24.811Z,3.67
2022-11-03T06:28:36.887Z,3.77
2022-11-03T06:33:44.175Z,4.40
2022-11-03T06:38:55.878Z,6.93
2022-11-03T06:44:06.848Z,3.43
2022-11-03T06:49:34.762Z,2.37
2022-11-03T06:54:40.568Z,4.60
2022-11-03T06:59:46.768Z,5.97
2022-11-03T07:04:52.564Z,4.00
2022-11-03T07:09:58.109Z,4.17
2022-11-03T07:20:13.124Z,4.13
2022-11-03T07:25:21.345Z,3.77
2022-11-03T07:30:29.920Z,6.33
2022-11-03T07:36:08.940Z,5.63
2022-11-03T07:40:49.123Z,2.87
2022-11-03T07:45:57.224Z,4.93
2022-11-03T07:51:06.338Z,3.90
2022-11-03T07:56:26.794Z,5.60
2022-11-03T08:01:50.601Z,4.73
2022-11-03T08:06:56.330Z,6.40
2022-11-03T08:12:01.877Z,5.00
2022-11-03T08:17:07.779Z,3.50
2022-11-03T08:22:13.403Z,4.50
2022-11-03T08:27:19.803Z,2.90
2022-11-03T08:32:25.256Z,3.27
2022-11-03T08:37:30.777Z,4.50
2022-11-03T08:42:36.222Z,4.40
2022-11-03T08:47:42.441Z,5.70
2022-11-03T08:52:48.216Z,3.57
2022-11-03T08:57:54.305Z,3.73
2022-11-03T09:03:00.888Z,4.20
2022-11-03T09:13:14.265Z,1.80
2022-11-03T09:18:19.787Z,3.30
2022-11-03T09:23:26.251Z,3.10
2022-11-03T09:28:31.630Z,2.90
2022-11-03T09:33:37.244Z,7.40
2022-11-03T09:38:42.712Z,3.57
2022-11-03T09:43:50.114Z,3.47
2022-11-03T09:48:56.702Z,7.20
2022-11-03T09:54:05.562Z,5.07
2022-11-03T09:59:22.785Z,3.03
2022-11-03T10:04:31.351Z,3.67
2022-11-03T10:09:37.184Z,4.43
2022-11-03T10:14:46.146Z,6.37
2022-11-03T10:19:54.980Z,4.80
2022-11-03T10:25:39.619Z,4.00
2022-11-03T10:36:18.370Z,2.30
2022-11-03T10:41:31.674Z,3.90
2022-11-03T10:46:50.796Z,5.27
2022-11-03T10:51:47.711Z,4.27
2022-11-03T10:56:54.418Z,2.10
2022-11-03T11:02:01.753Z,3.33
2022-11-03T11:07:23.447Z,2.53
2022-11-03T11:12:29.425Z,4.87
2022-11-03T11:17:43.874Z,5.83
2022-11-03T11:22:50.905Z,4.07
2022-11-03T11:27:58.608Z,4.07
2022-11-03T11:33:16.111Z,3.97
2022-11-03T11:38:46.983Z,1.33
2022-11-03T11:43:52.462Z,4.07
2022-11-03T11:49:06.943Z,2.57
2022-11-03T11:54:18.741Z,3.37
2022-11-03T11:59:26.238Z,3.43
2022-11-03T12:04:33.416Z,3.50
2022-11-03T12:09:40.477Z,4.73
2022-11-03T12:14:46.011Z,2.87
2022-11-03T12:19:53.245Z,1.80
2022-11-03T12:25:01.190Z,2.80
2022-11-03T12:30:09.790Z,4.90
2022-11-03T12:35:15.641Z,6.73
2022-11-03T12:40:21.232Z,5.03
2022-11-03T12:45:26.615Z,3.73
2022-11-03T12:50:32.073Z,3.37
2022-11-03T12:55:39.359Z,2.73
2022-11-03T13:00:49.935Z,2.93
2022-11-03T13:05:51.915Z,3.80
2022-11-03T13:10:58.701Z,3.57
2022-11-03T13:16:04.148Z,2.20
2022-11-03T13:21:09.671Z,4.23
2022-11-03T13:26:15.277Z,2.60
2022-11-03T13:31:20.737Z,1.80
2022-11-03T13:36:26.775Z,1.50
2022-11-03T13:41:33.608Z,3.63
2022-11-03T13:46:39.165Z,2.40
2022-11-03T13:51:44.556Z,2.27
2022-11-03T14:07:04.498Z,2.20
2022-11-03T14:12:27.806Z,4.10
2022-11-03T14:17:33.434Z,4.23
2022-11-03T14:22:39.874Z,2.17
2022-11-03T14:27:45.350Z,2.73
2022-11-03T14:32:54.193Z,1.93
2022-11-03T14:37:58.285Z,4.63
2022-11-03T14:43:04.131Z,3.63
2022-11-03T14:48:10.226Z,3.93
2022-11-03T14:53:16.045Z,2.70
2022-11-03T14:58:21.677Z,2.80
2022-11-03T15:03:27.349Z,5.67
2022-11-03T15:08:32.882Z,4.67
2022-11-03T15:13:44.045Z,5.67
2022-11-03T15:18:46.439Z,6.43
2022-11-03T15:28:59.257Z,9.40
2022-11-03T15:34:07.798Z,9.50
2022-11-03T15:39:13.647Z,15.90
2022-11-03T15:44:20.264Z,8.40
2022-11-03T15:49:26.439Z,4.73
2022-11-03T15:54:31.985Z,3.73
2022-11-03T15:59:38.476Z,5.93
2022-11-03T16:04:44.367Z,4.83
2022-11-03T16:09:49.953Z,3.47
2022-11-03T16:14:56.062Z,4.43
2022-11-03T16:20:01.646Z,5.13
2022-11-03T16:25:12.735Z,5.67
2022-11-03T16:30:16.293Z,5.53
2022-11-03T16:35:22.445Z,4.07
2022-11-03T16:40:28.170Z,7.07
2022-11-03T16:45:37.651Z,5.90
2022-11-03T16:50:44.495Z,4.37
2022-11-03T16:55:49.746Z,4.70
2022-11-03T17:00:55.491Z,6.33
2022-11-03T17:06:01.313Z,8.07
2022-11-03T17:11:08.437Z,4.33
2022-11-03T17:16:13.883Z,7.07
2022-11-03T17:21:19.342Z,7.63
2022-11-03T17:26:27.858Z,5.67
2022-11-03T17:31:33.378Z,5.57
2022-11-03T17:36:38.901Z,7.03
2022-11-03T17:41:44.454Z,6.03
2022-11-03T17:46:49.992Z,4.30
2022-11-03T17:51:55.610Z,4.93
2022-11-03T17:57:02.844Z,8.37
2022-11-03T18:02:11.635Z,7.67
2022-11-03T18:07:28.586Z,5.03
2022-11-03T18:12:57.942Z,7.53
2022-11-03T18:18:05.743Z,8.70
2022-11-03T18:23:17.380Z,5.37
2022-11-03T18:28:23.109Z,7.03
2022-11-03T18:33:32.375Z,7.43
2022-11-03T18:38:39.951Z,9.27
2022-11-03T18:43:45.651Z,6.03
2022-11-03T18:48:51.253Z,8.77
2022-11-03T18:53:56.879Z,7.30
2022-11-03T18:59:02.599Z,7.90
2022-11-03T19:04:12.749Z,6.60
2022-11-03T19:09:21.430Z,8.93
2022-11-03T19:14:32.983Z,8.13
2022-11-03T19:19:38.465Z,8.03
2022-11-03T19:24:47.169Z,8.57
2022-11-03T19:29:53.198Z,10.43
2022-11-03T19:35:02.798Z,6.43
2022-11-03T19:40:10.746Z,6.63
2022-11-03T19:45:18.779Z,7.53
2022-11-03T19:50:30.401Z,7.00
2022-11-03T19:55:39.062Z,8.47
2022-11-03T20:00:45.579Z,7.03
2022-11-03T20:05:54.135Z,9.60
2022-11-03T20:11:00.069Z,8.00
2022-11-03T20:16:09.421Z,7.03
2022-11-03T20:21:17.832Z,6.53
2022-11-03T20:26:25.701Z,9.73
2022-11-03T20:31:31.257Z,9.37
2022-11-03T20:36:36.809Z,8.93
2022-11-03T20:41:45.233Z,8.53
2022-11-03T20:46:50.801Z,8.80
2022-11-03T20:51:56.362Z,13.83
2022-11-03T20:57:01.835Z,9.13
2022-11-03T21:02:14.473Z,11.60
2022-11-03T21:07:20.359Z,8.23
2022-11-03T21:12:25.908Z,10.57
2022-11-03T21:17:49.651Z,11.87
2022-11-03T21:22:55.203Z,9.37
2022-11-03T21:28:00.770Z,9.10
2022-11-03T21:33:06.476Z,8.27
2022-11-03T21:38:12.669Z,10.10
2022-11-03T21:43:37.577Z,8.50
2022-11-03T21:48:59.973Z,9.17
2022-11-03T21:54:05.785Z,9.63
2022-11-03T21:59:11.400Z,9.43
2022-11-03T22:04:17.771Z,10.13
2022-11-03T22:09:24.293Z,13.20
2022-11-03T22:14:31.493Z,11.70
2022-11-03T22:19:55.934Z,14.33
2022-11-03T22:25:20.204Z,15.03
2022-11-03T22:30:43.802Z,11.87
2022-11-03T22:36:10.421Z,12.57
2022-11-03T22:41:34.015Z,11.73
2022-11-03T22:46:39.713Z,12.63
2022-11-03T22:51:45.184Z,9.63
2022-11-03T22:56:50.540Z,11.40
2022-11-03T23:01:56.216Z,13.00
2022-11-03T23:07:01.810Z,11.53
2022-11-03T23:12:07.577Z,13.97
2022-11-03T23:17:13.179Z,10.90
2022-11-03T23:22:18.633Z,11.80
2022-11-03T23:27:24.111Z,14.17
2022-11-03T23:32:29.710Z,16.03
2022-11-03T23:37:35.241Z,12.60
2022-11-03T23:42:40.765Z,10.60
2022-11-03T23:48:04.269Z,14.00
2022-11-03T23:53:09.796Z,15.10
2022-11-03T23:58:21.716Z,12.63
